Terminal Aerodrome Forecast
Issued by NWS

Current Version | Previous Version | Text Only | Print | Product List | Glossary Off
Versions: 1 2 3 4 5 6 7 8 9 10 11 12 13 14 15 16 17 18 19 20 21 22 23 24 25 26

000
FTUS41 KILN 210500
TAFLUK
TAF
KLUK 210530Z 2106/2206 20008KT P6SM SCT050 BKN110
     FM210800 21008KT P6SM VCSH SCT025 BKN050
     FM211000 22007KT 4SM BR VCSH SCT012 OVC025
     FM211200 23010KT P6SM OVC015
     FM211400 24010KT P6SM BKN028
     FM211500 26014G24KT P6SM BKN040
     FM211700 30017G26KT P6SM SCT040
     FM212300 30016G24KT P6SM BKN050
     FM220300 30012KT P6SM OVC040=

USA.gov is the U.S. government's official web portal to all federal, state and local government web resources and services.